Latest Weather Observations for Rolleston Airport

IDQ60801

Issued at 10:05 am EST Tuesday 25 November 2014 (issued every 30 minutes, with the page automatically refreshed every 10 minutes)

About weather observations | Map of weather stations | Latest weather observations for QLD | Other Formats
Station Details ID: 035129 Name: ROLLESTON AIRPORT Lat: -24.46 Lon: 148.63 Height: 219.45 m
Data from the previous 72 hours. | See also: Recent months at Rolleston Airport
Date/Time
EST
Temp
°C
App
Temp
°C
Dew
Point
Rel
Hum
%
Delta-T
°C
Wind Press
QNH
hPa
Press
MSL
hPa
Rain
since 9 am
mm
Dir
 
Spd
km/h
Gust
km/h
Spd
kts
Gust
kts
25/10:00am 29.0 29.5 16.5 46 7.9 NNE 9 19 5 10 1015.5 1014.3 0.0
25/09:30am 28.4 29.2 17.3 51 7.0 N 9 20 5 11 1015.8 1014.6 0.0
25/09:00am 27.4 28.2 17.3 54 6.4 N 9 20 5 11 1016.1 1014.9 0.0
25/08:30am 26.7 27.2 17.5 57 5.8 N 11 17 6 9 1016.2 1015.0 0.0
25/08:00am 26.5 26.8 17.8 58 5.5 N 13 19 7 10 1016.2 1015.0 0.0
25/07:30am 25.3 26.2 17.5 62 4.9 N 9 15 5 8 1016.4 1015.2 0.0
25/07:00am 24.0 25.8 17.5 67 4.1 NW 4 7 2 4 1016.3 1015.1 0.0
25/06:30am 23.3 25.7 17.1 68 3.9 CALM 0 2 0 1 1016.0 1014.8 0.0
25/06:00am 21.9 24.2 16.8 73 3.1 CALM 0 0 0 0 1015.7 1014.5 0.0
25/05:30am 21.5 23.5 16.9 75 2.8 NNE 2 4 1 2 1015.2 1014.0 0.0
25/05:00am 21.5 23.9 16.9 75 2.8 CALM 0 4 0 2 1015.0 1013.8 0.0
25/04:30am 21.3 23.5 16.5 74 2.9 CALM 0 0 0 0 1014.8 1013.6 0.0
25/04:00am 21.6 23.1 16.6 73 3.1 NNW 4 6 2 3 1014.5 1013.3 0.0
25/03:30am 22.0 23.5 16.7 72 3.3 W 4 6 2 3 1014.5 1013.3 0.0
25/03:00am 22.3 23.8 16.6 70 3.5 WSW 4 6 2 3 1014.3 1013.1 0.0
25/02:30am 22.6 23.6 16.9 70 3.5 NW 7 7 4 4 1013.8 1012.6 0.0
25/02:00am 22.9 24.4 16.7 68 3.8 N 4 7 2 4 1013.7 1012.5 0.0
25/01:30am 23.5 24.6 17.0 67 4.0 N 7 9 4 5 1013.8 1012.6 0.0
25/01:00am 24.1 24.4 17.1 65 4.4 N 11 17 6 9 1014.0 1012.8 0.0
25/12:30am 24.6 25.0 17.3 64 4.6 N 11 19 6 10 1014.2 1013.0 0.0
25/12:00am 25.0 25.0 17.2 62 4.9 N 13 22 7 12 1014.5 1013.3 0.0
 
Date/Time
EST
Temp
°C
App
Temp
°C
Dew
Point
Rel
Hum
%
Delta-T
°C
Wind Press
QNH
hPa
Press
MSL
hPa
Rain
since 9 am
mm
Dir
 
Spd
km/h
Gust
km/h
Spd
kts
Gust
kts
24/11:30pm 25.5 25.5 17.2 60 5.2 N 13 24 7 13 1014.5 1013.3 0.0
24/11:00pm 26.2 25.9 17.3 58 5.6 N 15 20 8 11 1014.6 1013.4 0.0
24/10:30pm 26.9 26.1 17.1 55 6.2 N 17 24 9 13 1014.3 1013.1 0.0
24/10:00pm 27.8 28.4 16.7 50 7.0 N 9 15 5 8 1013.9 1012.7 0.0
24/09:30pm 28.8 28.1 15.3 43 8.3 NNE 13 19 7 10 1013.5 1012.3 0.0
24/09:00pm 29.6 27.8 13.4 37 9.7 NE 15 20 8 11 1013.1 1011.8 0.0
24/08:30pm 29.1 28.7 12.5 36 9.8 E 6 7 3 4 1012.9 1011.6 0.0
24/08:00pm 29.8 29.2 12.3 34 10.4 E 7 9 4 5 1012.7 1011.4 0.0
24/07:30pm 30.7 30.0 12.1 32 11.0 E 7 11 4 6 1012.3 1011.0 0.0
24/07:00pm 31.9 30.5 12.2 30 11.7 E 11 13 6 7 1012.0 1010.7 0.0
24/06:30pm 32.8 31.7 11.9 28 12.4 E 9 13 5 7 1011.6 1010.4 0.0
24/06:00pm 33.7 31.3 11.5 26 13.2 E 15 22 8 12 1011.2 1010.0 0.0
24/05:30pm 34.1 32.8 11.3 25 13.5 E 9 15 5 8 1010.8 1009.6 0.0
24/05:00pm 34.1 33.6 11.9 26 13.3 ENE 6 15 3 8 1010.8 1009.6 0.0
24/04:30pm 34.1 32.1 10.0 23 14.0 NE 11 19 6 10 1010.7 1009.5 0.0
24/04:00pm 34.2 32.2 10.1 23 14.0 ENE 11 20 6 11 1010.9 1009.7 0.0
24/03:30pm 34.9 31.5 10.7 23 14.3 E 19 24 10 13 1011.2 1010.0 0.0
24/03:00pm 34.4 33.5 11.5 25 13.6 SSE 7 24 4 13 1011.6 1010.4 0.0
24/02:30pm 34.6 32.5 11.1 24 13.9 ENE 13 24 7 13 1012.0 1010.7 0.0
24/02:00pm 33.8 33.2 11.6 26 13.2 N 6 15 3 8 1012.4 1011.1 0.0
24/01:30pm 34.0 31.7 10.6 24 13.7 ENE 13 22 7 12 1013.0 1011.7 0.0
24/01:00pm 34.4 33.2 11.5 25 13.6 NE 9 20 5 11 1013.6 1012.4 0.0
24/12:30pm 32.8 31.0 10.8 26 12.9 N 11 19 6 10 1014.1 1012.9 0.0
24/12:00pm 33.2 31.7 10.5 25 13.2 N 9 19 5 10 1014.8 1013.6 0.0
24/11:30am 31.4 30.3 10.7 28 12.0 NE 7 15 4 8 1015.5 1014.3 0.0
24/11:00am 30.7 29.6 12.1 32 11.0 ENE 9 17 5 9 1015.9 1014.7 0.0
24/10:30am 30.6 29.6 13.4 35 10.4 E 11 22 6 12 1016.7 1015.4 0.0
24/10:00am 29.2 28.6 13.4 38 9.5 N 9 20 5 11 1017.0 1015.7 0.0
24/09:30am 28.7 27.2 13.0 38 9.3 NNE 13 20 7 11 1017.5 1016.3 0.0
24/09:00am 27.9 27.2 14.2 43 8.3 NNE 11 17 6 9 1017.5 1016.3 0.0
24/08:30am 26.4 25.7 14.2 47 7.3 N 11 19 6 10 1017.7 1016.5 0.0
24/08:00am 26.0 25.3 15.4 52 6.5 N 13 20 7 11 1017.8 1016.6 0.0
24/07:30am 25.1 25.3 15.7 56 5.8 N 9 15 5 8 1017.9 1016.7 0.0
24/07:00am 23.9 24.5 15.7 60 5.0 N 7 13 4 7 1017.8 1016.6 0.0
24/06:30am 23.4 24.3 16.2 64 4.4 N 6 9 3 5 1017.3 1016.1 0.0
24/06:00am 22.9 24.7 15.5 63 4.5 CALM 0 4 0 2 1017.1 1015.8 0.0
24/05:30am 21.9 23.4 15.7 68 3.7 N 2 4 1 2 1016.9 1015.6 0.0
24/05:00am 22.4 23.0 15.7 66 4.1 NE 7 13 4 7 1016.4 1015.2 0.0
24/04:30am 22.6 23.8 16.9 70 3.5 NE 6 9 3 5 1016.3 1015.1 0.0
24/04:00am 22.9 24.0 17.1 70 3.6 NNE 7 9 4 5 1016.0 1014.8 0.0
24/03:30am 22.7 24.1 16.5 68 3.8 N 4 7 2 4 1015.9 1014.7 0.0
24/03:00am 23.5 24.1 16.8 66 4.1 N 9 19 5 10 1015.6 1014.4 0.0
24/02:30am 23.5 25.4 17.7 70 3.6 N 4 6 2 3 1015.6 1014.4 0.0
24/02:00am 24.2 25.4 18.2 69 3.8 NNE 9 11 5 6 1015.6 1014.4 0.0
24/01:30am 24.5 26.2 18.4 69 3.9 N 7 9 4 5 1015.5 1014.3 0.0
24/01:00am 25.2 26.6 18.6 67 4.2 N 9 15 5 8 1015.4 1014.2 0.0
24/12:30am 25.9 27.4 18.8 65 4.6 N 9 13 5 7 1015.4 1014.2 0.0
24/12:00am 26.6 27.8 18.2 60 5.4 N 9 17 5 9 1015.3 1014.1 0.0
 
Date/Time
EST
Temp
°C
App
Temp
°C
Dew
Point
Rel
Hum
%
Delta-T
°C
Wind Press
QNH
hPa
Press
MSL
hPa
Rain
since 9 am
mm
Dir
 
Spd
km/h
Gust
km/h
Spd
kts
Gust
kts
23/11:30pm 27.3 27.7 17.2 54 6.4 N 11 17 6 9 1015.3 1014.1 0.0
23/11:00pm 28.4 27.9 16.0 47 7.7 NNE 13 20 7 11 1015.1 1013.9 0.0
23/10:30pm 29.3 28.4 15.8 44 8.4 NNE 15 19 8 10 1014.9 1013.7 0.0
23/10:00pm 29.7 29.4 15.4 42 8.9 NE 11 17 6 9 1014.6 1013.4 0.0
23/09:30pm 29.8 29.9 15.5 42 8.9 E 9 11 5 6 1014.3 1013.1 0.0
23/09:00pm 31.1 31.3 14.7 37 10.1 NE 7 11 4 6 1014.0 1012.8 0.0
23/08:30pm 31.1 31.1 15.1 38 9.9 ENE 9 13 5 7 1013.9 1012.7 0.0
23/08:00pm 31.6 31.6 15.1 36 10.3 ENE 9 13 5 7 1013.4 1012.2 0.0
23/07:30pm 32.3 32.2 14.9 35 10.8 ENE 9 15 5 8 1013.1 1011.8 0.0
23/07:00pm 32.7 32.0 14.3 32 11.3 ENE 11 19 6 10 1012.7 1011.4 0.0
23/06:30pm 33.8 32.7 14.3 31 12.1 ENE 13 19 7 10 1012.6 1011.3 0.0
23/06:00pm 34.5 32.9 13.9 29 12.7 ENE 15 22 8 12 1012.3 1011.0 0.0
23/05:30pm 35.5 33.6 14.2 28 13.2 ENE 17 22 9 12 1012.2 1010.9 0.0
23/05:00pm 36.4 34.4 13.8 26 14.0 E 17 24 9 13 1011.9 1010.6 0.0
23/04:30pm 36.5 35.9 14.5 27 13.8 ENE 11 20 6 11 1011.7 1010.5 0.0
23/04:00pm 37.1 36.4 15.5 27 13.8 ENE 13 22 7 12 1011.7 1010.5 0.0
23/03:30pm 36.7 35.9 15.2 27 13.6 NE 13 22 7 12 1012.0 1010.7 0.0
23/03:00pm 35.9 34.7 12.8 25 14.1 NE 11 28 6 15 1012.5 1011.2 0.0
23/02:30pm 37.1 35.3 13.2 24 14.7 ENE 15 24 8 13 1013.0 1011.7 0.0
23/02:00pm 36.3 36.8 16.5 31 12.7 ENE 9 19 5 10 1013.6 1012.4 0.0
23/01:30pm 35.5 36.8 17.2 33 11.9 NNW 6 19 3 10 1014.1 1012.9 0.0
23/01:00pm 34.9 35.8 17.6 35 11.3 NE 9 19 5 10 1014.7 1013.5 0.0
23/12:30pm 33.5 34.6 17.2 37 10.5 NE 7 13 4 7 1015.2 1014.0 0.0
23/12:00pm 32.3 32.4 17.4 41 9.6 NE 13 20 7 11 1015.7 1014.5 0.0
23/11:30am 32.0 33.0 18.6 45 8.8 ENE 11 19 6 10 1016.3 1015.1 0.0
23/11:00am 30.8 31.6 18.2 47 8.2 NNE 11 19 6 10 1016.9 1015.6 0.0
23/10:30am 30.6 32.0 18.7 49 7.8 NE 9 15 5 8 1017.3 1016.1 0.0
23/10:00am 30.0 31.6 19.1 52 7.1 N 9 19 5 10 1017.6 1016.4 0.0
23/09:30am 28.6 30.4 18.7 55 6.4 N 7 13 4 7 1017.7 1016.5 0.0
23/09:00am 28.3 29.9 19.2 57 5.9 N 9 19 5 10 1017.9 1016.7 0.0
23/08:30am 27.3 28.5 19.1 61 5.3 NNW 11 20 6 11 1018.0 1016.8 0.0
23/08:00am 27.0 27.4 19.1 62 5.1 NW 15 22 8 12 1018.0 1016.8 0.0
23/07:30am 26.4 27.3 19.3 65 4.6 N 13 22 7 12 1017.8 1016.6 0.0
23/07:00am 25.7 27.0 19.3 67 4.1 NNW 11 19 6 10 1017.7 1016.5 0.0
23/06:30am 24.9 27.0 19.3 71 3.6 NW 7 13 4 7 1017.1 1015.8 0.0
23/06:00am 23.8 26.2 18.7 73 3.3 NNW 4 6 2 3 1016.9 1015.6 0.0
23/05:30am 23.1 25.5 18.0 73 3.2 WNW 2 4 1 2 1016.4 1015.2 0.0
23/05:00am 22.8 25.2 17.9 74 3.1 NNW 2 6 1 3 1015.9 1014.7 0.0
23/04:30am 23.6 25.8 18.3 72 3.4 N 4 7 2 4 1015.4 1014.2 0.0
23/04:00am 23.9 25.4 18.1 70 3.7 N 7 9 4 5 1015.1 1013.9 0.0
23/03:30am 24.0 24.6 17.7 68 4.0 NNW 11 13 6 7 1014.8 1013.6 0.0
23/03:00am 24.2 25.0 17.4 65 4.3 NNW 9 15 5 8 1014.6 1013.4 0.0
23/02:30am 24.2 25.5 17.0 64 4.5 N 6 7 3 4 1014.2 1013.0 0.0
23/02:00am 24.6 25.7 16.6 61 5.0 NNW 6 9 3 5 1014.2 1013.0 0.0
23/01:30am 25.2 26.4 16.9 60 5.2 N 6 9 3 5 1014.0 1012.8 0.0
23/01:00am 25.7 27.1 17.4 60 5.2 NNW 6 7 3 4 1014.1 1012.9 0.0
23/12:30am 26.8 28.2 17.8 57 5.7 N 7 13 4 7 1014.0 1012.8 0.0
23/12:00am 27.4 28.8 17.8 55 6.1 N 7 11 4 6 1014.2 1013.0 0.0
 
Date/Time
EST
Temp
°C
App
Temp
°C
Dew
Point
Rel
Hum
%
Delta-T
°C
Wind Press
QNH
hPa
Press
MSL
hPa
Rain
since 9 am
mm
Dir
 
Spd
km/h
Gust
km/h
Spd
kts
Gust
kts
22/11:30pm 28.2 29.1 18.3 55 6.4 N 11 17 6 9 1014.0 1012.8 0.0
22/11:00pm 29.0 29.9 18.4 52 6.9 N 11 17 6 9 1014.0 1012.8 0.0
22/10:30pm 29.8 30.0 18.6 51 7.3 N 15 22 8 12 1013.8 1012.6 0.0
22/10:00pm 31.1 31.9 18.1 46 8.4 NE 11 17 6 9 1013.5 1012.3 0.0
22/09:30pm 31.7 32.4 17.9 43 8.9 NE 11 15 6 8 1012.9 1011.6 0.0
22/09:00pm 31.8 32.4 17.7 43 9.1 ENE 11 15 6 8 1012.8 1011.5 0.0
22/08:30pm 32.3 32.5 17.7 41 9.4 ENE 13 17 7 9 1012.6 1011.3 0.0
22/08:00pm 32.7 32.9 17.7 40 9.7 ENE 13 19 7 10 1012.3 1011.0 0.0
22/07:30pm 32.7 33.0 16.1 37 10.5 E 9 11 5 6 1011.9 1010.6 0.0
22/07:00pm 33.9 34.9 16.3 35 11.2 ENE 6 7 3 4 1011.2 1010.0 0.0
22/06:30pm 34.4 35.4 16.3 34 11.5 ENE 6 7 3 4 1010.9 1009.7 0.0
22/06:00pm 35.4 36.5 16.7 33 12.0 ENE 6 7 3 4 1010.9 1009.7 0.0
22/05:30pm 35.8 36.7 16.0 30 12.6 ENE 6 7 3 4 1010.7 1009.5 0.0
22/05:00pm 35.7 36.5 15.9 30 12.6 N 6 11 3 6 1010.8 1009.6 0.0
22/04:30pm 35.9 35.8 16.1 30 12.7 NE 11 15 6 8 1010.6 1009.4 0.0
22/04:00pm 35.9 35.7 16.6 31 12.4 NE 13 19 7 10 1010.2 1009.0 0.0
22/03:30pm 36.0 36.9 16.7 31 12.4 NNE 7 13 4 7 1010.4 1009.2 0.0
22/03:00pm 35.9 36.6 17.1 32 12.2 NNE 9 17 5 9 1010.9 1009.7 0.0
22/02:30pm 36.4 37.1 17.0 31 12.6 N 9 17 5 9 1011.5 1010.3 0.0
22/02:00pm 36.3 36.0 17.4 32 12.3 N 15 28 8 15 1011.7 1010.5 0.0
22/01:30pm 35.2 36.3 17.9 36 11.3 ENE 9 15 5 8 1012.3 1011.0 0.0
22/01:00pm 34.9 36.0 18.0 36 11.1 N 9 17 5 9 1012.9 1011.6 0.0
22/12:30pm 34.8 35.3 18.4 38 10.8 NE 13 35 7 19 1013.3 1012.1 0.0
22/12:00pm 34.4 34.9 19.2 40 10.1 NE 15 28 8 15 1013.6 1012.4 0.0
22/11:30am 33.1 33.0 18.8 42 9.4 N 17 33 9 18 1014.3 1013.1 0.0
22/11:00am 32.3 33.0 18.8 44 8.9 NW 13 22 7 12 1014.8 1013.6 0.0
22/10:30am 31.5 32.2 18.8 46 8.3 N 13 26 7 14 1015.3 1014.1 0.0

Other Formats:

Comma delimited format used in spreadsheet applications
http://www.bom.gov.au/fwo/IDQ60801/IDQ60801.94396.axf

JavaScript Object Notation format (JSON) in row-major order
http://www.bom.gov.au/fwo/IDQ60801/IDQ60801.94396.json